»·PEaware :: N5306U KAPA-KPUB

N5306U :: KAPA-KPUB

FLIGHT INFORMATION

Flight Status: Arrived
Operator: Privately registered:
United States
More flights under this callsign
Pilot: Dan K. (15030)
Aircraft: CESSNA 172 SKYHAWK
(C172)
More flights by this aircraft type
Origin: KAPA Centennial
United States
Destination: KPUB Pueblo Meml
United States
More flights between these airports :: More routes between these airports
Route: KAPA HOHUM BRK PUB KPUB
File this flight plan on PilotEdge
Remarks:
Altitude:
(Current/Filed)
9,000ft
Speed:
(Current/Filed)
120kts
Departed: 15-Apr-18 03:25 PM
Arrived: 15-Apr-18 04:11 PM
Distance/Time
Traveled:
79nm/0:46
Distance/Time
To Go:
Arrived

Flight Plot

Page will automatically refresh every two minutes.

Flight plan parsing failed; only flown route is shown


Map Options




Map Legend


Flown Route
Filed Route
Departure Airport
Arrival Airport
Navaid (VOR, NDB)
Fix

Horizontal Profiles

Position Reports

Time Latitude Longitude Heading Altitude Ground
Speed
15-Apr-18 14:57 39.570795 -104.835005 177 5819ft 0kts
15-Apr-18 15:00 39.570824 -104.835007 176 5818ft 0kts
15-Apr-18 15:01 39.570824 -104.835007 176 5818ft 0kts
15-Apr-18 15:02 39.570824 -104.835007 176 5818ft 0kts
15-Apr-18 15:03 39.570824 -104.835007 176 5818ft 0kts
15-Apr-18 15:04 39.570824 -104.835007 176 5818ft 0kts
15-Apr-18 15:11 39.570801 -104.835005 176 5819ft 0kts
15-Apr-18 15:12 39.570801 -104.835005 176 5819ft 0kts
15-Apr-18 15:13 39.569990 -104.835459 290 5825ft 17kts
15-Apr-18 15:14 39.572303 -104.843816 290 5825ft 16kts
15-Apr-18 15:15 39.573629 -104.848132 350 5825ft 0kts
15-Apr-18 15:16 39.573632 -104.848132 351 5825ft 0kts
15-Apr-18 15:17 39.573638 -104.848133 351 5825ft 0kts
15-Apr-18 15:18 39.573638 -104.848133 351 5825ft 0kts
15-Apr-18 15:19 39.573640 -104.848133 352 5825ft 0kts
15-Apr-18 15:20 39.573785 -104.848391 289 5825ft 6kts
15-Apr-18 15:21 39.577542 -104.849732 0 5825ft 21kts
15-Apr-18 15:22 39.583901 -104.850046 334 5825ft 9kts
15-Apr-18 15:23 39.583780 -104.851442 192 5825ft 16kts
15-Apr-18 15:24 39.566802 -104.850769 173 6321ft 89kts
15-Apr-18 15:25 39.542528 -104.844947 158 7271ft 91kts
15-Apr-18 15:26 39.513030 -104.830254 157 7364ft 114kts
15-Apr-18 15:27 39.488262 -104.819719 161 7362ft 83kts
15-Apr-18 15:28 39.461855 -104.808558 157 7365ft 111kts
15-Apr-18 15:29 39.431369 -104.797575 184 7371ft 117kts
15-Apr-18 15:30 39.399170 -104.802670 176 7954ft 113kts
15-Apr-18 15:31 39.370749 -104.785498 146 8330ft 122kts
15-Apr-18 15:32 39.338300 -104.767400 161 8857ft 124kts
15-Apr-18 15:33 39.302039 -104.761419 181 9099ft 144kts
15-Apr-18 15:34 39.262535 -104.773587 201 9094ft 148kts
15-Apr-18 15:35 39.233051 -104.807171 238 8826ft 144kts
15-Apr-18 15:36 39.201615 -104.808462 137 8727ft 123kts
15-Apr-18 15:37 39.184025 -104.771858 97 8504ft 119kts
15-Apr-18 15:38 39.154448 -104.761616 183 8144ft 134kts
15-Apr-18 15:39 39.118635 -104.754089 156 8595ft 132kts
15-Apr-18 15:40 39.088929 -104.730204 133 9054ft 129kts
15-Apr-18 15:41 39.061517 -104.700094 143 9264ft 142kts
15-Apr-18 15:42 39.026608 -104.676720 154 9348ft 139kts
15-Apr-18 15:43 38.992430 -104.651114 138 9332ft 141kts
15-Apr-18 15:44 38.956179 -104.636096 160 9231ft 146kts
15-Apr-18 15:45 38.924845 -104.617894 144 9193ft 144kts
15-Apr-18 15:46 38.894414 -104.587603 133 8961ft 134kts
15-Apr-18 15:47 38.869231 -104.554392 141 8733ft 133kts
15-Apr-18 15:48 38.834308 -104.537096 156 8519ft 133kts
15-Apr-18 15:49 38.806577 -104.516787 130 8737ft 114kts
15-Apr-18 15:50 38.784908 -104.486357 130 8969ft 117kts
15-Apr-18 15:51 38.762675 -104.453712 122 9080ft 124kts
15-Apr-18 15:52 38.740405 -104.421079 155 9146ft 125kts
15-Apr-18 15:53 38.705558 -104.414735 170 9276ft 131kts
15-Apr-18 15:54 38.668992 -104.406681 163 9000ft 132kts
15-Apr-18 15:55 38.637861 -104.385209 126 8672ft 129kts
15-Apr-18 15:56 38.611729 -104.355074 157 8466ft 131kts
15-Apr-18 15:57 38.576661 -104.355476 178 8711ft 112kts
15-Apr-18 15:58 38.542933 -104.354856 183 8862ft 127kts
15-Apr-18 15:59 38.507708 -104.355935 185 8904ft 129kts
15-Apr-18 16:00 38.472898 -104.364570 178 8898ft 129kts
15-Apr-18 16:01 38.443366 -104.345328 152 8845ft 130kts
15-Apr-18 16:02 38.409116 -104.348962 205 8900ft 127kts
15-Apr-18 16:03 38.376156 -104.365420 191 8894ft 127kts
15-Apr-18 16:04 38.340992 -104.371567 184 8918ft 126kts
15-Apr-18 16:05 38.305406 -104.369306 179 8148ft 131kts
15-Apr-18 16:06 38.290678 -104.401066 271 6571ft 92kts
15-Apr-18 16:07 38.288257 -104.429468 270 5823ft 76kts
15-Apr-18 16:08 38.288133 -104.456781 273 5186ft 71kts
15-Apr-18 16:09 38.287932 -104.480409 266 4646ft 43kts
15-Apr-18 16:10 38.286697 -104.485605 208 4650ft 0kts

Navigation Log

Ident Type
Flight plan parsing failed, navigation log unavailable